Time;durP1;ratioP1;P1;durP2;ratioP2;P2;SDS_P1;SDS_P2;PMS_P1;PMS_P2;Temp;Humidity;BMP_temperature;BMP_pressure;BME280_temperature;BME280_humidity;BME280_pressure;Samples;Min_cycle;Max_cycle;Signal;HPM_P1;HPM_P2
2020/12/24 00:01:50;;;;;;;;;45.67;37.00;;;;;1.80;65.31;102201.72;4434548;32;8899;-77
2020/12/24 00:04:46;;;;;;;;;49.33;44.67;;;;;1.78;65.38;102201.97;4433382;32;8904;-77
2020/12/24 00:07:13;;;;;;;;;41.67;39.33;;;;;1.81;65.06;102197.94;4435981;32;8960;-77
2020/12/24 00:10:10;;;;;;;;;46.33;42.33;;;;;1.76;65.30;102200.53;4434350;32;9598;-77
2020/12/24 00:13:06;;;;;;;;;37.00;34.00;;;;;1.80;65.19;102193.53;4433912;32;9034;-77
2020/12/24 00:16:03;;;;;;;;;25.00;22.67;;;;;1.86;64.95;102195.34;4432245;32;9041;-76
2020/12/24 00:18:59;;;;;;;;;28.67;28.67;;;;;1.87;64.50;102206.00;4417343;32;8910;-77
2020/12/24 00:21:55;;;;;;;;;28.67;28.67;;;;;1.75;64.18;102196.97;4432391;32;9621;-77
2020/12/24 00:24:22;;;;;;;;;25.00;22.00;;;;;1.77;64.35;102191.31;4434201;32;8918;-77
2020/12/24 00:27:17;;;;;;;;;22.00;22.00;;;;;1.83;64.02;102193.06;4433986;32;8972;-77
2020/12/24 00:29:45;;;;;;;;;31.00;31.00;;;;;1.62;64.22;102186.28;4434594;32;9049;-76
2020/12/24 00:32:40;;;;;;;;;21.67;20.67;;;;;1.77;63.97;102189.41;4426165;32;8921;-77
2020/12/24 00:35:08;;;;;;;;;30.00;29.67;;;;;1.64;64.38;102193.16;4434034;32;8952;-77
2020/12/24 00:38:04;;;;;;;;;34.00;31.00;;;;;1.74;64.12;102186.28;4432837;32;8934;-77
2020/12/24 00:40:59;;;;;;;;;28.33;27.33;;;;;1.60;64.15;102186.50;4433893;32;8977;-76
2020/12/24 00:43:55;;;;;;;;;23.67;20.33;;;;;1.71;63.96;102189.50;4433275;32;8896;-76
2020/12/24 00:46:36;;;;;;;;;18.33;18.33;;;;;1.58;63.71;102185.09;4433590;32;8951;-76
2020/12/24 00:49:32;;;;;;;;;22.00;19.67;;;;;1.67;63.38;102170.88;4433349;32;8922;-76
2020/12/24 00:52:27;;;;;;;;;19.00;17.33;;;;;1.67;63.29;102167.31;4448404;32;8937;-76
2020/12/24 00:55:23;;;;;;;;;11.33;11.00;;;;;1.51;63.29;102159.81;4441551;32;8888;-76
2020/12/24 00:58:19;;;;;;;;;17.33;14.67;;;;;1.54;63.07;102153.91;4434352;32;8903;-76
2020/12/24 01:01:14;;;;;;;;;12.00;12.00;;;;;1.65;62.51;102159.37;4433419;32;8904;-76
2020/12/24 01:04:10;;;;;;;;;12.33;12.33;;;;;1.51;62.86;102154.38;4434106;32;8911;-76
2020/12/24 01:06:37;;;;;;;;;9.67;9.67;;;;;1.43;63.07;102160.16;4434085;32;8890;-76
2020/12/24 01:09:34;;;;;;;;;11.33;8.67;;;;;1.38;63.32;102158.13;4433791;32;8876;-75
2020/12/24 01:12:31;;;;;;;;;9.00;9.00;;;;;1.39;62.98;102155.19;4433742;32;8953;-76
2020/12/24 01:15:04;;;;;;;;;6.33;6.33;;;;;1.49;62.88;102156.50;4418268;32;8885;-77
2020/12/24 01:17:59;;;;;;;;;5.33;5.33;;;;;1.56;62.52;102146.31;4430896;32;9679;-76
2020/12/24 01:20:55;;;;;;;;;10.00;10.00;;;;;1.49;62.42;102143.69;4433887;32;8919;-76
2020/12/24 01:23:22;;;;;;;;;13.00;13.00;;;;;1.54;62.41;102152.03;4435134;32;8863;-76
2020/12/24 01:26:18;;;;;;;;;6.67;6.67;;;;;1.57;62.28;102143.34;4431901;32;8883;-77
2020/12/24 01:29:14;;;;;;;;;12.00;12.00;;;;;1.52;62.60;102142.37;4432250;32;9699;-76
2020/12/24 01:32:09;;;;;;;;;7.00;7.00;;;;;1.59;62.61;102141.22;4435762;32;8922;-76
2020/12/24 01:35:05;;;;;;;;;9.33;8.00;;;;;1.52;62.74;102137.75;4438186;32;8968;-76
2020/12/24 01:37:41;;;;;;;;;13.67;13.00;;;;;1.46;62.92;102130.56;4437595;32;8992;-76
2020/12/24 01:40:37;;;;;;;;;13.00;13.00;;;;;1.42;63.14;102136.69;4435096;32;8892;-76
2020/12/24 01:43:05;;;;;;;;;19.00;16.67;;;;;1.57;62.73;102143.34;4436399;32;8893;-76
2020/12/24 01:45:57;;;;;;;;;16.00;16.00;;;;;1.47;63.09;102145.00;4435752;32;8891;-76
2020/12/24 01:48:53;;;;;;;;;19.00;19.00;;;;;1.42;63.59;102150.31;4419641;32;8999;-76
2020/12/24 01:51:26;;;;;;;;;9.67;9.67;;;;;1.42;63.84;102153.88;4433416;32;9605;-76
2020/12/24 01:54:24;;;;;;;;;13.33;13.33;;;;;1.39;64.14;102144.28;4435390;32;8939;-76
2020/12/24 01:57:20;;;;;;;;;14.00;14.00;;;;;1.37;64.51;102132.75;4421370;32;8937;-76
2020/12/24 02:00:17;;;;;;;;;13.33;11.67;;;;;1.42;64.29;102140.25;4420888;32;8960;-76
2020/12/24 02:03:16;;;;;;;;;19.33;19.33;;;;;1.49;64.31;102138.25;4435556;32;8930;-77
2020/12/24 02:06:14;;;;;;;;;20.00;19.00;;;;;1.38;64.59;102131.72;4436117;32;8927;-76
2020/12/24 02:09:10;;;;;;;;;12.67;12.33;;;;;1.43;64.60;102141.91;4435898;32;8892;-76
2020/12/24 02:12:08;;;;;;;;;18.33;16.67;;;;;1.37;64.77;102137.38;4438434;32;9544;-76
2020/12/24 02:15:04;;;;;;;;;18.33;16.67;;;;;1.51;64.36;102138.84;4420601;32;8890;-76
2020/12/24 02:18:00;;;;;;;;;15.33;15.33;;;;;1.30;64.94;102129.34;4433235;32;8884;-75
2020/12/24 02:20:56;;;;;;;;;12.33;12.33;;;;;1.34;64.81;102132.41;4434852;32;9010;-76
2020/12/24 02:23:53;;;;;;;;;22.67;18.00;;;;;1.42;64.66;102132.06;4435543;32;8935;-77
2020/12/24 02:26:21;;;;;;;;;9.00;9.00;;;;;1.28;64.90;102128.72;4436719;32;8883;-77
2020/12/24 02:29:16;;;;;;;;;13.00;13.00;;;;;1.38;64.94;102122.69;4435299;32;8927;-76
2020/12/24 02:31:44;;;;;;;;;16.67;16.67;;;;;1.49;64.60;102126.50;4436467;32;8906;-76
2020/12/24 02:34:39;;;;;;;;;15.00;14.00;;;;;1.37;65.04;102129.19;4435005;32;8926;-77
2020/12/24 02:37:35;;;;;;;;;20.33;20.33;;;;;1.46;64.76;102136.00;4435576;32;8953;-77
2020/12/24 02:40:32;;;;;;;;;21.33;21.33;;;;;1.34;65.08;102127.78;4434240;32;8996;-77
2020/12/24 02:43:27;;;;;;;;;11.00;10.00;;;;;1.55;64.63;102128.31;4435058;32;8941;-77
2020/12/24 02:46:24;;;;;;;;;19.00;19.00;;;;;1.43;64.75;102132.91;4436225;32;8943;-77
2020/12/24 02:49:19;;;;;;;;;14.33;14.33;;;;;1.41;65.05;102132.31;4436231;32;8908;-77
2020/12/24 02:52:15;;;;;;;;;15.67;15.67;;;;;1.45;65.02;102126.13;4435404;32;8911;-77
2020/12/24 02:55:11;;;;;;;;;17.33;17.33;;;;;1.51;64.51;102129.81;4435313;32;8900;-77
2020/12/24 02:58:07;;;;;;;;;22.00;16.67;;;;;1.53;64.63;102135.88;4436252;32;8892;-77
2020/12/24 03:01:02;;;;;;;;;21.33;19.33;;;;;1.44;65.07;102151.75;4435190;32;8892;-76
2020/12/24 03:03:58;;;;;;;;;25.00;25.00;;;;;1.41;65.28;102146.78;4434607;32;8888;-77
2020/12/24 03:06:41;;;;;;;;;26.00;24.00;;;;;1.49;65.33;102143.69;4435876;32;8935;-76
2020/12/24 03:09:36;;;;;;;;;23.33;23.33;;;;;1.55;65.16;102137.31;4435119;32;8903;-76
2020/12/24 03:12:12;;;;;;;;;20.00;19.00;;;;;1.34;66.15;102140.59;4436267;32;8999;-77
2020/12/24 03:15:07;;;;;;;;;22.00;22.00;;;;;1.46;65.81;102148.78;4434922;32;9034;-77
2020/12/24 03:18:03;;;;;;;;;24.00;24.00;;;;;1.45;65.80;102141.66;4436749;32;8887;-76
2020/12/24 03:20:58;;;;;;;;;20.00;19.33;;;;;1.55;65.39;102144.66;4434793;32;8895;-76
2020/12/24 03:23:34;;;;;;;;;28.67;28.67;;;;;1.48;65.61;102147.50;4435324;32;8936;-77
2020/12/24 03:26:32;;;;;;;;;27.67;22.33;;;;;1.57;65.39;102145.25;4435263;32;8903;-77
2020/12/24 03:29:27;;;;;;;;;34.00;25.00;;;;;1.47;65.79;102148.56;4434771;32;8995;-77
2020/12/24 03:31:54;;;;;;;;;27.33;24.33;;;;;1.60;65.21;102133.84;4436191;32;8902;-76
2020/12/24 03:34:21;;;;;;;;;18.67;16.00;;;;;1.49;65.81;102140.16;4436664;32;8937;-77
2020/12/24 03:36:49;;;;;;;;;29.00;29.00;;;;;1.64;65.17;102135.88;4434863;32;9052;-76
2020/12/24 03:39:45;;;;;;;;;29.67;25.33;;;;;1.54;65.60;102129.38;4434962;32;8888;-77
2020/12/24 03:42:12;;;;;;;;;2.33;0.00;;;;;1.57;65.76;102135.16;4435604;32;8898;-77
2020/12/24 03:45:08;;;;;;;;;36.33;34.33;;;;;1.59;65.69;102124.03;4437662;32;9591;-77
2020/12/24 03:48:03;;;;;;;;;27.67;27.00;;;;;1.56;65.94;102129.97;4438125;32;8895;-77
2020/12/24 03:50:59;;;;;;;;;27.00;27.00;;;;;1.63;65.63;102127.94;4449037;32;8944;-77
2020/12/24 03:53:48;;;;;;;;;24.00;23.33;;;;;1.56;65.82;102125.34;4440673;32;8867;-78
2020/12/24 03:56:44;;;;;;;;;24.67;24.67;;;;;1.49;66.21;102123.78;4449719;32;8881;-77
2020/12/24 03:59:40;;;;;;;;;24.33;24.33;;;;;1.37;66.49;102127.31;4449131;32;8957;-77
2020/12/24 04:02:36;;;;;;;;;23.67;21.00;;;;;1.45;66.03;102122.59;4418745;32;8902;-77
2020/12/24 04:05:05;;;;;;;;;25.67;22.33;;;;;1.59;65.89;102129.47;4426690;32;9606;-77
2020/12/24 04:08:00;;;;;;;;;29.33;23.33;;;;;1.60;65.66;102136.59;4434141;32;8912;-77
2020/12/24 04:10:28;;;;;;;;;22.00;17.33;;;;;1.38;65.90;102133.59;4434745;32;8871;-77
2020/12/24 04:13:24;;;;;;;;;35.33;33.33;;;;;1.46;65.66;102146.03;4433767;32;8951;-77
2020/12/24 04:16:21;;;;;;;;;25.00;23.67;;;;;1.47;65.54;102139.56;4421497;32;8930;-76
2020/12/24 04:19:16;;;;;;;;;20.67;20.67;;;;;1.49;65.71;102140.97;4417345;32;8891;-76
2020/12/24 04:22:12;;;;;;;;;24.33;19.00;;;;;1.35;66.18;102144.97;4430281;32;9630;-76
2020/12/24 04:25:07;;;;;;;;;25.00;24.00;;;;;1.24;65.78;102146.62;4433989;32;8899;-76
2020/12/24 04:28:03;;;;;;;;;26.33;19.67;;;;;1.40;65.72;102142.37;4432450;32;8895;-77
2020/12/24 04:30:45;;;;;;;;;12.67;12.67;;;;;1.17;66.23;102148.63;4423894;32;8978;-77
2020/12/24 04:33:28;;;;;;;;;23.33;22.00;;;;;1.41;65.23;102146.78;4434066;32;8891;-77
2020/12/24 04:35:55;;;;;;;;;22.33;22.00;;;;;1.42;65.73;102147.59;4433743;32;8887;-77
2020/12/24 04:38:51;;;;;;;;;17.33;17.33;;;;;1.54;65.21;102146.56;4419223;32;8918;-77
2020/12/24 04:41:47;;;;;;;;;27.33;22.00;;;;;1.46;65.23;102151.50;4418312;32;8906;-76
2020/12/24 04:44:43;;;;;;;;;25.00;23.33;;;;;1.49;65.08;102149.16;4426623;32;9023;-78
2020/12/24 04:47:16;;;;;;;;;28.33;28.33;;;;;1.23;65.93;102144.97;4426127;32;8871;-77
2020/12/24 04:50:13;;;;;;;;;26.33;24.00;;;;;1.50;65.38;102147.25;4432301;32;8943;-77
2020/12/24 04:53:09;;;;;;;;;31.33;30.67;;;;;1.47;65.44;102147.75;4424740;32;9566;-76
2020/12/24 04:56:06;;;;;;;;;23.67;22.00;;;;;1.39;65.71;102152.47;4418193;32;8906;-78
2020/12/24 04:59:02;;;;;;;;;27.00;25.00;;;;;1.41;65.56;102154.12;4425893;32;9599;-77
2020/12/24 05:01:50;;;;;;;;;24.33;23.33;;;;;1.35;65.78;102150.44;4434171;32;9571;-78
2020/12/24 05:04:46;;;;;;;;;26.33;25.00;;;;;1.37;65.75;102154.56;4423573;32;8915;-77
2020/12/24 05:07:17;;;;;;;;;31.67;29.00;;;;;1.43;65.65;102152.81;4433864;32;8903;-78
2020/12/24 05:10:13;;;;;;;;;25.67;25.67;;;;;1.40;65.64;102153.28;4432997;32;8880;-76
2020/12/24 05:13:20;;;;;;;;;28.33;26.67;;;;;1.42;65.63;102161.22;4434727;32;8988;-76
2020/12/24 05:16:16;;;;;;;;;21.67;21.67;;;;;1.32;65.93;102150.91;4433450;32;8896;-76
2020/12/24 05:19:11;;;;;;;;;26.33;26.33;;;;;1.28;66.18;102149.69;4433590;32;8915;-76
2020/12/24 05:21:56;;;;;;;;;24.67;24.33;;;;;1.42;65.44;102153.06;4428546;32;8987;-77
2020/12/24 05:24:38;;;;;;;;;26.00;26.00;;;;;1.34;65.66;102155.06;4418001;32;8940;-76
2020/12/24 05:27:10;;;;;;;;;34.67;28.67;;;;;1.21;66.00;102149.78;4418689;32;8917;-76
2020/12/24 05:30:06;;;;;;;;;28.67;27.67;;;;;1.28;65.91;102145.06;4417136;32;8898;-76
2020/12/24 05:33:02;;;;;;;;;34.67;30.00;;;;;1.42;65.23;102142.97;4417876;32;8938;-77
2020/12/24 05:36:13;;;;;;;;;24.67;24.67;;;;;1.38;65.42;102145.34;4416937;32;8902;-78
2020/12/24 05:39:09;;;;;;;;;24.00;24.00;;;;;1.38;65.24;102148.06;4426042;32;9568;-78
2020/12/24 05:41:51;;;;;;;;;28.67;25.67;;;;;1.41;65.03;102144.03;4425608;32;8911;-78
2020/12/24 05:44:49;;;;;;;;;31.67;30.33;;;;;1.44;65.11;102150.91;4433208;32;8904;-78
2020/12/24 05:47:45;;;;;;;;;37.00;33.00;;;;;1.42;65.15;102150.31;4433408;32;8904;-79
2020/12/24 05:50:26;;;;;;;;;41.33;36.00;;;;;1.39;65.21;102151.63;4432172;32;9002;-79
2020/12/24 05:53:04;;;;;;;;;31.00;31.00;;;;;1.47;65.15;102145.00;4416836;32;8971;-79
2020/12/24 05:56:00;;;;;;;;;25.67;25.67;;;;;1.52;65.18;102150.56;4416467;32;9054;-79
2020/12/24 05:58:28;;;;;;;;;44.00;41.33;;;;;1.45;65.11;102145.22;4418745;32;9518;-79
2020/12/24 06:01:28;;;;;;;;;21.00;18.67;;;;;1.50;65.09;102148.09;4417898;32;8967;-79
2020/12/24 06:04:42;;;;;;;;;32.00;26.67;;;;;1.46;65.09;102144.19;4417390;32;8902;-79
2020/12/24 06:08:06;;;;;;;;;27.67;27.67;;;;;1.39;65.48;102157.09;4427625;32;8892;-78
2020/12/24 06:10:45;;;;;;;;;37.33;37.33;;;;;1.51;65.46;102154.38;4431990;32;8878;-79
2020/12/24 06:13:43;;;;;;;;;35.67;31.67;;;;;1.53;65.34;102155.78;4431856;32;8888;-79
2020/12/24 06:16:44;;;;;;;;;36.67;35.33;;;;;1.53;65.30;102155.78;4426150;32;8973;-79
2020/12/24 06:19:40;;;;;;;;;44.67;42.67;;;;;1.42;65.88;102158.50;4427220;32;8884;-79
2020/12/24 06:22:39;;;;;;;;;36.33;36.33;;;;;1.39;66.03;102157.09;4429399;32;8907;-79
2020/12/24 06:25:36;;;;;;;;;36.33;30.33;;;;;1.43;66.03;102151.97;4432894;32;8899;-79
2020/12/24 06:28:30;;;;;;;;;34.67;34.67;;;;;1.45;65.82;102155.28;4435746;32;8902;-78
2020/12/24 06:31:27;;;;;;;;;36.33;36.33;;;;;1.53;65.40;102150.31;4421810;32;8937;-78
2020/12/24 06:34:24;;;;;;;;;41.67;41.67;;;;;1.54;65.76;102148.47;4409600;32;8975;-79
2020/12/24 06:37:20;;;;;;;;;39.67;39.00;;;;;1.45;65.81;102156.13;4421128;32;9072;-79
2020/12/24 06:40:30;;;;;;;;;28.33;28.00;;;;;1.49;66.15;102153.78;4430518;32;8933;-78
2020/12/24 06:43:40;;;;;;;;;31.00;31.00;;;;;1.58;65.96;102150.47;4428894;32;8896;-78
2020/12/24 06:46:49;;;;;;;;;35.33;31.33;;;;;1.70;65.51;102149.66;4425290;32;9594;-80
2020/12/24 06:49:45;;;;;;;;;30.00;25.67;;;;;1.50;66.17;102161.72;4435578;32;9008;-79
2020/12/24 06:52:40;;;;;;;;;39.33;31.67;;;;;1.60;66.14;102156.50;4436011;32;8958;-79
2020/12/24 06:55:36;;;;;;;;;33.33;31.33;;;;;1.62;66.30;102153.56;4435543;32;8965;-78
2020/12/24 06:58:40;;;;;;;;;36.67;36.67;;;;;1.50;66.84;102150.81;4434582;32;8866;-81
2020/12/24 07:01:35;;;;;;;;;27.00;27.00;;;;;1.57;66.78;102151.53;4437496;32;8937;-78
2020/12/24 07:04:36;;;;;;;;;27.33;25.67;;;;;1.57;66.76;102148.81;4435867;32;8957;-80
2020/12/24 07:07:45;;;;;;;;;38.33;33.00;;;;;1.64;66.61;102143.25;4435326;32;9041;-80
2020/12/24 07:10:44;;;;;;;;;33.67;31.00;;;;;1.62;66.71;102150.84;4436419;32;8947;-79
2020/12/24 07:13:41;;;;;;;;;35.00;27.00;;;;;1.76;66.28;102154.16;4438023;32;8915;-80
2020/12/24 07:16:48;;;;;;;;;26.00;25.00;;;;;1.66;66.52;102152.84;4434705;32;8907;-80
2020/12/24 07:19:30;;;;;;;;;45.00;34.67;;;;;1.61;67.08;102147.28;4435879;32;8949;-79
2020/12/24 07:22:31;;;;;;;;;31.00;31.00;;;;;1.56;67.26;102146.31;4432577;32;8910;-79
2020/12/24 07:25:35;;;;;;;;;36.67;36.33;;;;;1.68;67.08;102155.31;4409204;32;9539;-79
2020/12/24 07:28:38;;;;;;;;;44.33;40.00;;;;;1.80;66.75;102156.19;4418683;32;9052;-79
2020/12/24 07:31:36;;;;;;;;;42.00;41.00;;;;;1.77;66.92;102159.41;4418319;32;8992;-79
2020/12/24 07:34:33;;;;;;;;;42.00;29.33;;;;;1.69;66.97;102159.75;4418207;32;8949;-79
2020/12/24 07:37:29;;;;;;;;;33.00;30.67;;;;;1.58;67.36;102149.63;4419479;32;8946;-78
2020/12/24 07:40:31;;;;;;;;;37.00;35.00;;;;;1.67;67.00;102161.84;4419097;32;9000;-79
2020/12/24 07:43:29;;;;;;;;;43.33;40.67;;;;;1.62;67.42;102156.28;4421330;32;8918;-83
2020/12/24 07:46:06;;;;;;;;;34.33;31.33;;;;;1.57;67.43;102159.72;4426028;32;9541;-83
2020/12/24 07:48:35;;;;;;;;;49.67;43.33;;;;;1.84;66.96;102162.84;4428583;32;8880;-82
2020/12/24 07:51:34;;;;;;;;;37.00;35.00;;;;;1.81;66.71;102163.28;4437864;32;8930;-84
2020/12/24 07:54:30;;;;;;;;;36.33;36.33;;;;;1.94;66.09;102168.53;4434389;32;8930;-82
2020/12/24 07:57:27;;;;;;;;;28.67;25.33;;;;;1.90;66.33;102161.87;4436746;32;8972;-83
2020/12/24 08:00:23;;;;;;;;;37.67;32.33;;;;;1.82;66.58;102156.75;4436085;32;8904;-83
2020/12/24 08:03:20;;;;;;;;;28.00;27.33;;;;;1.87;66.36;102158.78;4444504;32;9014;-84
2020/12/24 08:06:16;;;;;;;;;31.33;28.33;;;;;1.67;66.98;102157.22;4452910;32;8905;-84
2020/12/24 08:09:17;;;;;;;;;37.00;33.67;;;;;1.77;66.86;102170.31;4455507;32;8956;-82
2020/12/24 08:12:20;;;;;;;;;31.00;31.00;;;;;1.72;67.08;102158.44;4449949;32;8910;-86
2020/12/24 08:15:18;;;;;;;;;31.67;27.33;;;;;1.71;67.11;102145.88;4451821;32;8881;-85
2020/12/24 08:18:14;;;;;;;;;26.33;26.33;;;;;1.60;67.77;102150.22;4439106;32;8907;-85
2020/12/24 08:21:21;;;;;;;;;36.67;33.00;;;;;1.74;67.75;102148.94;4452225;32;8900;-86
2020/12/24 08:23:54;;;;;;;;;28.67;28.67;;;;;1.71;67.53;102141.25;4421890;32;8882;-86
2020/12/24 08:26:52;;;;;;;;;42.67;36.67;;;;;1.72;68.06;102133.88;4422827;32;8894;-81
2020/12/24 08:29:36;;;;;;;;;29.00;26.33;;;;;1.84;67.76;102135.56;4430118;32;8926;-83
2020/12/24 08:32:33;;;;;;;;;25.67;25.67;;;;;1.88;67.81;102136.72;4440418;32;9611;-81
2020/12/24 08:35:29;;;;;;;;;35.67;32.67;;;;;1.66;68.64;102131.03;4449430;32;9015;-82
2020/12/24 08:38:33;;;;;;;;;54.00;47.00;;;;;1.89;68.04;102135.66;4420255;32;9604;-82
2020/12/24 08:41:34;;;;;;;;;42.00;40.33;;;;;1.86;68.50;102132.59;4423601;32;8963;-82
2020/12/24 08:44:30;;;;;;;;;46.67;40.33;;;;;1.96;68.21;102124.63;4418071;32;9003;-82
2020/12/24 08:47:27;;;;;;;;;48.00;41.33;;;;;1.98;68.47;102118.91;4424544;32;8956;-83
2020/12/24 08:50:35;;;;;;;;;31.00;28.00;;;;;2.14;68.24;102110.81;4435652;32;9068;-82
2020/12/24 08:53:32;;;;;;;;;26.33;26.33;;;;;1.89;69.08;102107.53;4434145;32;8975;-82
2020/12/24 08:56:33;;;;;;;;;25.67;25.00;;;;;1.74;69.84;102110.75;4422258;32;8989;-81
2020/12/24 08:59:29;;;;;;;;;22.33;22.33;;;;;1.98;69.21;102103.38;4438935;32;8892;-83
2020/12/24 09:02:24;;;;;;;;;23.33;23.33;;;;;1.99;69.09;102094.13;4411504;32;8891;-81
2020/12/24 09:05:25;;;;;;;;;25.67;24.33;;;;;2.07;68.83;102096.50;4433488;32;8907;-82
2020/12/24 09:08:27;;;;;;;;;32.33;30.33;;;;;2.06;69.37;102094.00;4445597;32;9545;-81
2020/12/24 09:11:35;;;;;;;;;23.00;22.33;;;;;2.32;68.64;102093.47;4441098;32;8970;-82
2020/12/24 09:14:31;;;;;;;;;23.00;23.00;;;;;2.32;68.88;102088.00;4430651;32;8931;-83
2020/12/24 09:17:26;;;;;;;;;27.67;27.67;;;;;2.31;69.08;102091.00;4434880;32;8968;-82
2020/12/24 09:20:08;;;;;;;;;32.33;30.33;;;;;2.37;69.19;102087.28;4429845;32;9600;-80
2020/12/24 09:23:13;;;;;;;;;29.00;27.00;;;;;2.15;69.81;102089.84;4434161;32;8895;-82
2020/12/24 09:26:10;;;;;;;;;32.33;31.33;;;;;2.23;69.81;102084.00;4433837;32;8888;-83
2020/12/24 09:28:58;;;;;;;;;37.00;31.00;;;;;2.32;70.00;102088.00;4434154;32;8937;-83
2020/12/24 09:32:00;;;;;;;;;34.33;33.33;;;;;2.26;70.32;102082.69;4420783;32;8910;-85
2020/12/24 09:34:31;;;;;;;;;50.33;38.67;;;;;2.35;70.12;102081.22;4434993;32;8899;-85
2020/12/24 09:37:26;;;;;;;;;34.67;34.67;;;;;2.25;70.23;102089.22;4435526;32;8888;-79
2020/12/24 09:40:23;;;;;;;;;28.33;27.33;;;;;2.26;70.31;102071.78;4447877;32;8963;-79
2020/12/24 09:43:19;;;;;;;;;28.00;25.67;;;;;2.12;70.46;102074.75;4451081;32;9147;-80
2020/12/24 09:46:16;;;;;;;;;19.67;19.00;;;;;2.09;70.38;102071.69;4450257;32;8900;-78
2020/12/24 09:48:44;;;;;;;;;13.00;13.00;;;;;2.15;70.00;102073.47;4449772;32;8876;-79
2020/12/24 09:51:40;;;;;;;;;29.67;29.67;;;;;2.17;69.86;102069.41;4441277;32;8912;-80
2020/12/24 09:54:44;;;;;;;;;24.67;24.67;;;;;2.18;70.15;102065.62;4452806;32;9708;-78
2020/12/24 09:57:41;;;;;;;;;29.67;27.67;;;;;2.31;70.05;102060.97;4428941;32;9016;-79
2020/12/24 10:00:37;;;;;;;;;26.00;25.33;;;;;2.31;70.29;102059.06;4422016;32;8903;-80
2020/12/24 10:03:34;;;;;;;;;28.00;25.00;;;;;2.11;71.22;102064.91;4421038;32;8944;-79
2020/12/24 10:06:30;;;;;;;;;33.67;33.33;;;;;2.16;71.26;102064.22;4428715;32;8930;-77
2020/12/24 10:09:26;;;;;;;;;23.33;23.33;;;;;2.30;71.21;102049.22;4421475;32;8911;-78
2020/12/24 10:12:26;;;;;;;;;25.33;23.33;;;;;2.42;70.86;102049.97;4421430;32;9057;-79
2020/12/24 10:15:22;;;;;;;;;40.00;33.00;;;;;2.23;71.82;102054.81;4419596;32;9671;-79
2020/12/24 10:18:18;;;;;;;;;30.33;27.67;;;;;2.29;71.97;102046.69;4422051;32;8937;-79
2020/12/24 10:21:14;;;;;;;;;27.33;27.33;;;;;2.27;72.35;102055.12;4421526;32;9150;-78
2020/12/24 10:24:10;;;;;;;;;40.00;34.00;;;;;2.30;72.51;102056.53;4420810;32;8907;-79
2020/12/24 10:27:07;;;;;;;;;39.67;34.67;;;;;2.34;72.60;102050.37;4426378;32;8894;-79
2020/12/24 10:30:03;;;;;;;;;35.33;34.33;;;;;2.39;72.56;102053.22;4420808;32;8914;-80
2020/12/24 10:32:59;;;;;;;;;26.00;26.00;;;;;2.51;72.34;102047.69;4420699;32;8960;-79
2020/12/24 10:35:54;;;;;;;;;43.67;40.33;;;;;2.38;72.95;102045.28;4427058;32;9015;-79
2020/12/24 10:38:51;;;;;;;;;39.00;38.00;;;;;2.56;72.40;102033.31;4418478;32;8902;-79
2020/12/24 10:41:51;;;;;;;;;33.33;30.00;;;;;2.47;72.82;102036.44;4419163;32;8907;-78
2020/12/24 10:44:47;;;;;;;;;31.00;31.00;;;;;2.60;72.60;102026.28;4432497;32;8911;-79
2020/12/24 10:47:42;;;;;;;;;37.67;37.67;;;;;2.50;73.31;102021.44;4436334;32;9058;-79
2020/12/24 10:50:39;;;;;;;;;26.67;26.67;;;;;2.59;72.75;102027.34;4432658;32;8912;-78
2020/12/24 10:53:35;;;;;;;;;30.33;29.67;;;;;2.69;72.90;102031.13;4434714;32;8915;-77
2020/12/24 10:56:31;;;;;;;;;29.00;28.33;;;;;2.75;72.37;102019.19;4422880;32;9020;-78
2020/12/24 10:59:00;;;;;;;;;24.67;22.33;;;;;2.84;72.14;102018.78;4435367;32;8882;-77
2020/12/24 11:01:56;;;;;;;;;27.33;27.33;;;;;2.81;72.29;102006.44;4434154;32;9085;-77
2020/12/24 11:04:52;;;;;;;;;27.67;27.67;;;;;2.90;72.04;102010.41;4421762;32;8868;-77
2020/12/24 11:07:47;;;;;;;;;28.33;28.33;;;;;3.03;71.56;102014.75;4428656;32;8952;-78
2020/12/24 11:10:43;;;;;;;;;36.67;33.67;;;;;2.73;72.58;102006.84;4432007;32;8969;-77
2020/12/24 11:13:40;;;;;;;;;30.67;30.67;;;;;3.04;71.84;102006.28;4434749;32;8888;-77
2020/12/24 11:16:36;;;;;;;;;31.33;27.00;;;;;2.97;71.85;102010.25;4434978;32;8959;-78
2020/12/24 11:19:04;;;;;;;;;22.67;22.00;;;;;3.19;71.25;102004.88;4435049;32;9011;-78
2020/12/24 11:21:59;;;;;;;;;27.33;26.67;;;;;3.14;71.43;102002.06;4434501;32;13048;-79
2020/12/24 11:24:55;;;;;;;;;31.33;27.00;;;;;3.16;71.24;102005.41;4434266;32;8914;-78
2020/12/24 11:27:50;;;;;;;;;32.00;32.00;;;;;3.06;71.59;102009.59;4426762;32;12326;-78
2020/12/24 11:30:32;;;;;;;;;29.00;27.33;;;;;3.32;71.00;102002.63;4435321;32;8921;-79
2020/12/24 11:32:59;;;;;;;;;30.33;28.67;;;;;3.24;71.13;101989.37;4434817;32;12395;-79
2020/12/24 11:35:56;;;;;;;;;28.50;28.00;;;;;3.27;70.93;101980.69;4433908;32;12303;-79
2020/12/24 11:38:53;;;;;;;;;27.00;26.67;;;;;3.27;71.31;101985.31;4419084;32;12465;-78
2020/12/24 11:41:49;;;;;;;;;25.33;25.33;;;;;3.42;70.81;101985.53;4419246;32;12436;-79
2020/12/24 11:44:16;;;;;;;;;40.33;36.67;;;;;3.12;71.78;101979.63;4418735;32;8905;-77
2020/12/24 11:47:06;;;;;;;;;24.33;24.33;;;;;3.32;71.34;101986.22;4431393;32;12388;-76
2020/12/24 11:50:03;;;;;;;;;24.00;23.33;;;;;3.25;71.16;101982.84;4432628;32;12327;-77
2020/12/24 11:52:59;;;;;;;;;26.33;26.33;;;;;3.32;71.23;101971.72;4432950;32;13028;-78
2020/12/24 11:55:59;;;;;;;;;29.33;29.33;;;;;3.47;70.80;101977.41;4409941;32;8906;-78
2020/12/24 11:58:54;;;;;;;;;32.33;31.67;;;;;3.43;70.96;101972.69;4418593;32;12370;-78
2020/12/24 12:01:30;;;;;;;;;28.00;21.67;;;;;3.37;71.04;101966.31;4422595;32;8977;-77
2020/12/24 12:04:27;;;;;;;;;24.33;24.33;;;;;3.38;71.23;101961.69;4432949;32;8900;-77
2020/12/24 12:07:25;;;;;;;;;28.00;28.00;;;;;3.35;71.26;101957.53;4432402;32;12393;-77
2020/12/24 12:10:23;;;;;;;;;25.33;25.33;;;;;3.42;71.09;101960.09;4423106;32;13080;-78
2020/12/24 12:13:19;;;;;;;;;27.25;27.25;;;;;3.55;70.84;101962.47;4418396;32;12340;-78
2020/12/24 12:16:22;;;;;;;;;35.67;32.33;;;;;3.35;70.93;101957.53;4417965;32;12337;-77
2020/12/24 12:19:18;;;;;;;;;23.00;23.00;;;;;3.49;70.52;101967.03;4422834;32;8879;-78
2020/12/24 12:22:14;;;;;;;;;30.33;30.33;;;;;3.45;70.71;101965.91;4433683;32;12328;-78
2020/12/24 12:24:42;;;;;;;;;17.00;11.67;;;;;3.53;70.47;101953.72;4433878;32;8921;-79
2020/12/24 12:27:38;;;;;;;;;30.00;27.67;;;;;3.51;70.71;101955.84;4433982;32;12350;-77
2020/12/24 12:30:24;;;;;;;;;32.33;30.67;;;;;3.57;70.05;101955.66;4434787;32;8941;-78
2020/12/24 12:32:50;;;;;;;;;24.67;24.33;;;;;3.55;70.34;101957.00;4434243;32;8907;-77
2020/12/24 12:35:19;;;;;;;;;37.67;35.67;;;;;3.55;70.51;101965.22;4428893;32;8863;-78
2020/12/24 12:38:04;;;;;;;;;31.33;30.00;;;;;3.60;70.28;101960.66;4417755;32;12379;-78
2020/12/24 12:41:00;;;;;;;;;28.00;26.67;;;;;3.70;70.06;101962.69;4433763;32;8896;-76
2020/12/24 12:43:55;;;;;;;;;33.00;30.67;;;;;3.67;70.08;101963.19;4430331;32;13061;-77
2020/12/24 12:46:38;;;;;;;;;28.67;27.67;;;;;3.65;70.23;101956.31;4433444;32;12336;-76
2020/12/24 12:49:33;;;;;;;;;36.33;34.67;;;;;3.77;69.72;101960.59;4432983;32;13117;-78
2020/12/24 12:52:30;;;;;;;;;34.00;28.00;;;;;3.80;69.62;101972.94;4430394;32;12355;-77
2020/12/24 12:55:25;;;;;;;;;33.67;33.67;;;;;3.10;71.38;101973.56;4426391;32;12339;-78
2020/12/24 12:58:21;;;;;;;;;30.33;30.33;;;;;2.69;73.68;101971.00;4433770;32;8896;-77
2020/12/24 13:01:03;;;;;;;;;26.00;22.33;;;;;2.83;73.31;101968.75;4433955;32;8922;-76
2020/12/24 13:03:59;;;;;;;;;35.00;32.33;;;;;2.60;74.27;101963.44;4432700;32;9029;-78
2020/12/24 13:07:00;;;;;;;;;37.67;32.67;;;;;2.55;75.19;101952.47;4431865;32;9049;-76
2020/12/24 13:09:55;;;;;;;;;41.33;37.67;;;;;2.71;74.51;101959.84;4419806;32;9070;-76
2020/12/24 13:12:23;;;;;;;;;27.33;22.67;;;;;2.56;75.09;101968.59;4429598;32;8999;-76
2020/12/24 13:15:19;;;;;;;;;29.33;28.33;;;;;2.55;75.26;101956.00;4432392;32;8971;-77
2020/12/24 13:18:15;;;;;;;;;17.00;14.67;;;;;2.43;75.75;101960.69;4431929;32;8992;-77
2020/12/24 13:21:13;;;;;;;;;26.67;23.00;;;;;2.43;75.40;101961.53;4433361;32;9021;-77